This is the latest recevied weather packets stored in our database for station/object K7SKM. If no packets are shown the sender has not sent any weather packets the latest 10 day(s).
| Time | Temp. | Humidity | Pressure | Rain* | Wind** | Luminosity | Snow |
|---|---|---|---|---|---|---|---|
| 1777572641 | 20° C | 55% | 1024.7 hPa | 0 mm | - | 380 W/m² | - |
| 1777572336 | 18.33° C | 57% | 1024.6 hPa | 0 mm | - | 361 W/m² | - |
| 1777572032 | 19.44° C | 56% | 1024.8 hPa | 0 mm | - | 286 W/m² | - |
| 1777571732 | 17.22° C | 62% | 1024.7 hPa | 0 mm | - | 332 W/m² | - |
| 1777571430 | 17.22° C | 61% | 1024.7 hPa | 0 mm | - | 244 W/m² | - |
| 1777571126 | 17.78° C | 60% | 1024.9 hPa | 0 mm | - | 272 W/m² | - |
| 1777570822 | 17.78° C | 60% | 1024.8 hPa | 0 mm | - | 287 W/m² | - |
| 1777570518 | 17.22° C | 60% | 1024.8 hPa | 0 mm | - | 305 W/m² | - |
| 1777570215 | 17.22° C | 60% | 1024.8 hPa | 0 mm | - | 289 W/m² | - |
| 1777569910 | 17.22° C | 61% | 1024.8 hPa | 0 mm | - | 212 W/m² | - |
| 1777569606 | 16.67° C | 63% | 1025.1 hPa | 0 mm | - | 238 W/m² | - |
| 1777569303 | 16.67° C | 64% | 1024.9 hPa | 0 mm | - | 216 W/m² | - |
| 1777569000 | 16.67° C | 63% | 1025.2 hPa | 0 mm | - | 179 W/m² | - |
| 1777568696 | 16.11° C | 66% | 1025 hPa | 0 mm | - | 214 W/m² | - |
| 1777568393 | 16.11° C | 66% | 1025.2 hPa | 0 mm | - | 238 W/m² | - |
| 1777568090 | 15.56° C | 66% | 1025.2 hPa | 0 mm | - | 222 W/m² | - |
| 1777567787 | 16.11° C | 66% | 1025.2 hPa | 0 mm | - | 260 W/m² | - |
| 1777567483 | 16.11° C | 65% | 1025.2 hPa | 0 mm | - | 253 W/m² | - |
| 1777567181 | 15.56° C | 69% | 1025.1 hPa | 0 mm | - | 251 W/m² | - |
| 1777566879 | 15° C | 70% | 1025.5 hPa | 0 mm | - | 235 W/m² | - |
| 1777566576 | 14.44° C | 71% | 1025.4 hPa | 0 mm | - | 232 W/m² | - |
| 1777566273 | 14.44° C | 71% | 1025.6 hPa | 0 mm | - | 227 W/m² | - |
| 1777565971 | 15.56° C | 68% | 1025.3 hPa | 0 mm | - | 176 W/m² | - |
| 1777565666 | 15° C | 71% | 1025.6 hPa | 0 mm | - | 204 W/m² | - |
| 1777565363 | 14.44° C | 73% | 1025.7 hPa | 0 mm | - | 188 W/m² | - |
* Rain latest hour (hover to see other rain measurements)
** Current wind speed in m/s (hover to see current wind gust speed)